Terra Nova, Canada
Current Conditions -  °F | °C
As of 6:00 AM on Saturday 20 Dec 2014 (Local Time) from CYQX Reporting Station
Overcast Overcast  
Wind Chill: 18°   Ceiling: 2600
Heat Index: 28°   Visibility: 15mi
Dew Point: 25°   Wind: 12mph
Humidity: 86%   Direction: 10°N
Pressure: 30.03"   Gusts: NA
Location:  48.5°N, 54.22°W
Report Text: CYQX 200900Z 01010KT 15SM FEW008 BKN026 OVC044 M02/M04 A3003 RMK SF1SC5SC2 SLP176
Loading
Personal Weather Stations






























Interactive Weather Map New forecast layout! Learn more

10-Day Weather Forecast

Advertisements
Track Severe Weather on mobile